aviador You're here:

CYRL Decoded Metar

RED LAKE AIRPORT in ON, CANADA
Report Time2018-07-23 11:00:00
UTC Time2018-07-23 11:40:20
Flight Rules vfr VFR
Wind210° at 04 kt
W.Decomp.*RWY 26: 2.5 kt HW 3.1 kt LCW
W.Rank210° ranks 18
Current wind is below 210° avg. (6.2)
Visibility9999 m
Phenomena:N/A
Clouds:Overcast 030 Hf
Expected CloudBase > 400 ft AGL from Temp-Dew spread
Ceiling3,000 ft
Temp19°C (ISA +6)
Dew Point18°C (94% RH)
QNH1015 hPa
Density Alt2,231 ft
Elevation1,257 ft
Report Wrong Elevation
Raw Report
CYRL 231100Z 21004KT 15SM OVC030 19/18 A2996 RMK SC8 SLP148
DENSITY ALT 2000FT=

Extra information for CYRL:More info

Metar Taf Metar & Taf Last 4 Metars F.Rules Stats Wind Profile Meteogram Temp Stats Airport Information Weather charts Add Link Nearby VenuesMetar ALERT Operation Metar Decoded Social comments